Tropical Cyclones
[Index]
Main Index Home Page Stock Weather Photos Extreme Storms Discussion Storm News and Storm Chasing Reports Tropical Cyclones / Hurricanes / Typhoons Weather Data and Links Wild Fires / Bushfires Weather Observation Techniques Weather Picture Catalogue Tornado Pictures and Reports Stock Video Footage and DVDs for sale
Season 1985-1986 Tropical Cyclone OPHELIA Track Map
Season 1985-1986 Summaries: [BoM-AU] [JTWC-AU] [JTWC-SIO] [JTWC-SPAC] [JTWC-SH]
<<- Previous TC | BoM 1985-1986 Season | Next TC ->>

click for intensity scale information  Lat/long Grid: Show Hide

 Date Labels: Show Hide

Bureau of Meteorology Tropical Cyclone Data

Name: OPHELIA
Number: 681 / 198586_02

07 Jan 1986 00:00 UTC to 12 Jan 1986 00:00 UTC

    date/time    lat    long    hPa   cat  kts
1986-01-07 00    8.6    97.6   1005         20          
1986-01-07 18    8.9    96.9   1004         25          
1986-01-08 00    9.1    96.7   1003         24          
1986-01-08 06    9.2    96.5   1003         24          
1986-01-08 12    9.4    96.3   1002         24          
1986-01-08 18    9.6    96.1   1002         25          
1986-01-09 00    9.7    95.8   1002         30          
1986-01-09 03    9.8    95.7   1002         35          
1986-01-09 06    9.9    95.6   1000         40          
1986-01-09 12   10.1    95.4    997         40          
1986-01-09 18   10.3    95.2    995    1    40          
1986-01-10 00   10.4    95.6    991    1    40          
1986-01-10 06   10.5    96.0    987    1    40          
1986-01-10 09   10.6    96.2    986    1    40          
1986-01-10 12   10.6    96.4    988    1    45          
1986-01-10 18   10.9    96.7    988    1    40          
1986-01-11 00   11.2    96.8    986    1    35          
1986-01-11 06   11.8    97.1    986    1    30          
1986-01-11 12   12.4    97.3    995    1    25          
1986-01-11 18   12.7    97.8   1002         25          
1986-01-12 00   12.9    98.1   1004         25          
Winds are 10-min average.

Tropical cyclone tracks developed by Michael Bath using data from the Bureau of Meteorology and Google Maps.


[Australian Severe Weather index] [Copyright Notice] [Email Contacts] [Search This Site] [Privacy Policy]
Document: tropical_cyclone_ophelia.htm Updated: 4 April 2018